Time;durP1;ratioP1;P1;durP2;ratioP2;P2;SDS_P1;SDS_P2;PMS_P1;PMS_P2;Temp;Humidity;BMP_temperature;BMP_pressure;BME280_temperature;BME280_humidity;BME280_pressure;Samples;Min_cycle;Max_cycle;Signal;HPM_P1;HPM_P2
2023/01/01 00:02:06;;;;;;;417.00;197.80;;;;;;;5.53;100.00;95892.84;4954726;28;20094;-74
2023/01/01 00:04:33;;;;;;;466.23;235.30;;;;;;;5.69;100.00;95891.38;4952401;28;20436;-74
2023/01/01 00:06:59;;;;;;;586.13;318.63;;;;;;;5.51;100.00;95894.88;4961466;28;20078;-75
2023/01/01 00:12:09;;;;;;;623.70;339.60;;;;;;;5.55;100.00;95890.81;4959018;28;20047;-74
2023/01/01 00:14:35;;;;;;;897.92;558.17;;;;;;;5.40;100.00;95898.28;4950374;29;20417;-74
2023/01/01 00:17:01;;;;;;;813.95;493.02;;;;;;;5.47;100.00;95904.19;4951816;28;20048;-75
2023/01/01 00:19:26;;;;;;;893.75;558.97;;;;;;;5.47;100.00;95904.19;4964730;28;20050;-75
2023/01/01 00:21:52;;;;;;;798.55;495.08;;;;;;;5.47;100.00;95909.41;4951203;28;20039;-72
2023/01/01 00:24:18;;;;;;;636.65;345.92;;;;;;;5.50;100.00;95924.63;4956637;28;20049;-74
2023/01/01 00:26:44;;;;;;;480.92;226.00;;;;;;;5.79;100.00;95932.56;4961923;28;20051;-75
2023/01/01 00:29:09;;;;;;;499.13;249.75;;;;;;;5.84;100.00;95935.28;4963923;28;20590;-75
2023/01/01 00:31:35;;;;;;;529.03;284.50;;;;;;;5.81;100.00;95946.22;4969772;28;20065;-75
2023/01/01 00:34:00;;;;;;;523.15;267.05;;;;;;;5.79;100.00;95938.59;4964626;28;20042;-72
2023/01/01 00:36:27;;;;;;;531.25;274.02;;;;;;;5.67;100.00;95935.19;4961113;28;20043;-72
2023/01/01 00:38:53;;;;;;;557.75;287.77;;;;;;;5.51;100.00;95931.44;4965119;28;20390;-73
2023/01/01 00:41:19;;;;;;;580.30;304.80;;;;;;;5.41;100.00;95952.09;4967554;28;20129;-72
2023/01/01 00:43:45;;;;;;;511.35;260.88;;;;;;;5.39;100.00;95954.94;4968113;28;20039;-74
2023/01/01 00:46:11;;;;;;;538.72;272.08;;;;;;;5.28;100.00;95959.09;4947850;28;20102;-74
2023/01/01 00:48:37;;;;;;;488.70;242.43;;;;;;;5.26;100.00;95955.94;4951639;28;20040;-74
2023/01/01 00:51:03;;;;;;;468.52;225.13;;;;;;;5.23;100.00;95956.38;4963209;28;20067;-75
2023/01/01 00:53:29;;;;;;;495.17;242.32;;;;;;;5.11;100.00;95937.28;4964816;28;20438;-75
2023/01/01 00:55:55;;;;;;;578.33;304.70;;;;;;;5.04;100.00;95947.81;4959659;28;20074;-75
2023/01/01 00:58:23;;;;;;;563.30;294.23;;;;;;;4.92;100.00;95945.16;4958682;28;20039;-75
2023/01/01 01:00:49;;;;;;;555.20;288.83;;;;;;;4.83;100.00;95952.50;4963022;28;20046;-75
2023/01/01 01:03:28;;;;;;;555.10;287.25;;;;;;;4.92;100.00;95960.03;4969616;28;20089;-75
2023/01/01 01:05:55;;;;;;;491.17;237.02;;;;;;;5.03;100.00;95957.47;4944391;29;20540;-74
2023/01/01 01:08:20;;;;;;;506.80;245.02;;;;;;;4.91;100.00;95954.00;4950063;28;20513;-73
2023/01/01 01:10:46;;;;;;;508.15;244.63;;;;;;;4.84;100.00;95958.50;4962933;28;20046;-73
2023/01/01 01:13:12;;;;;;;497.30;238.52;;;;;;;4.80;100.00;95965.22;4967099;28;20039;-73
2023/01/01 01:15:37;;;;;;;455.83;212.25;;;;;;;4.81;100.00;95958.97;4953761;28;20517;-73
2023/01/01 01:18:03;;;;;;;468.17;211.60;;;;;;;4.77;100.00;95968.25;4957176;28;20043;-74
2023/01/01 01:20:28;;;;;;;503.90;245.93;;;;;;;4.77;100.00;95978.66;4959277;28;20047;-73
2023/01/01 01:22:54;;;;;;;484.48;223.98;;;;;;;4.69;100.00;95967.53;4963573;28;20047;-73
2023/01/01 01:25:20;;;;;;;381.92;168.07;;;;;;;4.80;100.00;95983.47;4958436;28;20044;-73
2023/01/01 01:27:45;;;;;;;427.80;181.43;;;;;;;4.75;100.00;95991.94;4949672;28;20106;-74
2023/01/01 01:30:11;;;;;;;388.08;160.73;;;;;;;4.65;100.00;95982.00;4962381;28;20042;-75
2023/01/01 01:32:37;;;;;;;347.15;151.02;;;;;;;4.73;100.00;95987.97;4967539;28;20118;-75
2023/01/01 01:35:03;;;;;;;370.90;158.20;;;;;;;4.61;100.00;95975.69;4960080;28;20035;-74
2023/01/01 01:37:28;;;;;;;456.85;206.60;;;;;;;4.64;100.00;95985.66;4953886;29;20050;-74
2023/01/01 01:39:54;;;;;;;396.77;173.57;;;;;;;4.61;100.00;95991.31;4955253;28;20412;-74
2023/01/01 01:42:20;;;;;;;439.52;193.50;;;;;;;4.58;100.00;95994.34;4961997;28;20046;-74
2023/01/01 01:44:46;;;;;;;523.25;260.42;;;;;;;4.48;100.00;95986.25;4958792;28;20054;-74
2023/01/01 01:47:21;;;;;;;434.15;194.30;;;;;;;4.45;100.00;95997.09;4959853;28;20429;-74
2023/01/01 01:49:48;;;;;;;420.77;181.80;;;;;;;4.41;100.00;95995.94;4964295;28;20043;-74
2023/01/01 01:52:14;;;;;;;451.83;200.05;;;;;;;4.38;100.00;95996.38;4967404;28;20053;-74
2023/01/01 01:54:40;;;;;;;413.35;177.52;;;;;;;4.37;100.00;95994.78;4965839;28;20043;-74
2023/01/01 01:57:09;;;;;;;382.73;158.48;;;;;;;4.24;100.00;95991.34;4952899;28;20054;-74
2023/01/01 01:59:42;;;;;;;350.85;148.55;;;;;;;4.30;100.00;95993.06;4954940;28;20082;-74
2023/01/01 02:02:14;;;;;;;314.63;132.52;;;;;;;4.23;100.00;95984.50;4954855;28;20043;-74
2023/01/01 02:04:41;;;;;;;362.17;147.80;;;;;;;4.27;100.00;95980.47;4963527;28;20040;-74
2023/01/01 02:07:07;;;;;;;292.50;125.47;;;;;;;4.21;100.00;95991.75;4949536;28;20066;-74
2023/01/01 02:09:33;;;;;;;249.38;104.88;;;;;;;4.25;100.00;95982.50;4954699;28;20501;-74
2023/01/01 02:11:58;;;;;;;185.02;77.03;;;;;;;4.31;100.00;95971.22;4954743;28;20043;-74
2023/01/01 02:14:24;;;;;;;165.98;70.75;;;;;;;4.28;100.00;95966.44;4960337;28;20047;-74
2023/01/01 02:17:06;;;;;;;177.50;75.70;;;;;;;4.33;100.00;95969.16;4955620;28;20416;-74
2023/01/01 02:19:43;;;;;;;41.58;18.15;;;;;;;5.02;100.00;95968.91;4940701;28;20047;-74
2023/01/01 02:22:35;;;;;;;26.98;12.70;;;;;;;5.93;100.00;95960.03;4935530;29;20682;-74
2023/01/01 02:25:22;;;;;;;28.90;13.40;;;;;;;5.72;100.00;95959.59;4964189;28;20421;-74
2023/01/01 02:28:05;;;;;;;36.15;18.50;;;;;;;5.71;100.00;95962.44;4958194;28;20105;-74
2023/01/01 02:30:34;;;;;;;42.17;20.58;;;;;;;5.42;100.00;95959.69;4951932;29;20441;-74
2023/01/01 02:33:08;;;;;;;32.60;14.88;;;;;;;5.51;100.00;95947.09;4957616;28;20453;-74
2023/01/01 02:35:41;;;;;;;19.45;10.05;;;;;;;5.58;100.00;95953.00;4956099;28;20494;-74
2023/01/01 02:38:18;;;;;;;20.67;9.55;;;;;;;5.65;100.00;95958.91;4950397;28;20039;-74
2023/01/01 02:40:48;;;;;;;17.75;8.43;;;;;;;5.88;100.00;95952.09;4953893;28;20058;-74
2023/01/01 02:43:14;;;;;;;16.65;8.40;;;;;;;5.96;100.00;95949.16;4953131;28;20787;-74
2023/01/01 02:45:39;;;;;;;19.23;9.45;;;;;;;5.73;100.00;95945.53;4965015;28;20079;-74
2023/01/01 02:48:27;;;;;;;22.17;11.38;;;;;;;5.53;100.00;95947.66;4960188;28;20433;-74
2023/01/01 02:50:57;;;;;;;25.02;11.52;;;;;;;5.48;100.00;95947.56;4946380;29;20561;-74
2023/01/01 02:53:35;;;;;;;16.38;9.15;;;;;;;5.43;100.00;95950.03;4962023;28;20043;-74
2023/01/01 02:56:44;;;;;;;16.33;8.57;;;;;;;5.33;100.00;95951.41;4955328;28;20434;-74
2023/01/01 03:02:06;;;;;;;25.10;12.85;;;;;;;5.26;100.00;95955.13;4953858;29;20085;-74
2023/01/01 03:04:58;;;;;;;20.90;9.63;;;;;;;5.24;100.00;95952.72;4960241;28;20054;-74
2023/01/01 03:08:01;;;;;;;20.80;10.23;;;;;;;5.20;100.00;95957.63;4951378;28;20118;-74
2023/01/01 03:10:32;;;;;;;26.90;11.70;;;;;;;5.18;100.00;95951.03;4954091;28;20050;-74
2023/01/01 03:13:16;;;;;;;22.30;10.63;;;;;;;5.13;100.00;95950.88;4953458;28;20047;-74
2023/01/01 03:15:50;;;;;;;19.80;9.30;;;;;;;5.08;100.00;95954.16;4955004;28;20043;-74
2023/01/01 03:19:09;;;;;;;23.60;9.43;;;;;;;5.00;100.00;95931.81;4961107;28;20457;-74
2023/01/01 03:21:58;;;;;;;24.40;9.98;;;;;;;4.95;100.00;95949.94;4925988;29;20123;-74
2023/01/01 03:24:35;;;;;;;23.42;10.00;;;;;;;4.85;100.00;95954.91;4937217;28;20054;-74
2023/01/01 03:27:12;;;;;;;20.05;9.52;;;;;;;4.78;100.00;95967.22;4964315;28;20109;-74
2023/01/01 03:29:39;;;;;;;21.17;9.20;;;;;;;4.73;100.00;95961.91;4947436;28;20043;-74
2023/01/01 03:32:07;;;;;;;21.52;9.90;;;;;;;4.73;100.00;95967.13;4953203;28;20043;-74
2023/01/01 03:34:38;;;;;;;19.95;9.13;;;;;;;4.72;100.00;95970.72;4959502;28;20567;-74
2023/01/01 03:37:09;;;;;;;21.80;10.15;;;;;;;4.66;100.00;95967.97;4957592;28;20426;-74
2023/01/01 03:39:44;;;;;;;22.13;9.57;;;;;;;4.60;100.00;95974.06;4967567;28;20042;-74
2023/01/01 03:42:14;;;;;;;;;;;;;;;4.55;100.00;95976.53;4966565;28;20054;-74
2023/01/01 03:44:43;;;;;;;20.52;9.63;;;;;;;4.58;100.00;95976.09;4945992;28;20003;-74
2023/01/01 03:47:09;;;;;;;19.83;8.70;;;;;;;4.60;100.00;95979.28;4933552;29;20040;-74
2023/01/01 03:49:35;;;;;;;21.77;8.85;;;;;;;4.63;100.00;95991.88;4946996;28;20066;-74
2023/01/01 03:52:15;;;;;;;23.77;9.95;;;;;;;4.41;100.00;95986.34;4952571;28;20035;-74
2023/01/01 03:54:54;;;;;;;19.33;9.10;;;;;;;4.22;100.00;95993.34;4966357;28;20080;-74
2023/01/01 03:57:28;;;;;;;26.63;9.48;;;;;;;4.26;100.00;96004.13;4941907;28;20088;-74
2023/01/01 04:00:03;;;;;;;21.88;9.55;;;;;;;4.12;100.00;96003.47;4958694;28;20432;-74
2023/01/01 04:02:34;;;;;;;;;;;;;;;4.06;100.00;96004.34;4955570;28;20039;-74
2023/01/01 04:05:02;;;;;;;31.05;9.73;;;;;;;3.98;100.00;95998.41;4939924;28;19929;-74
2023/01/01 04:07:30;;;;;;;33.38;10.60;;;;;;;3.96;100.00;96005.59;4933655;29;20056;-74
2023/01/01 04:10:00;;;;;;;25.00;10.30;;;;;;;4.03;100.00;96004.78;4953051;28;20043;-74
2023/01/01 04:12:27;;;;;;;29.20;10.32;;;;;;;3.95;100.00;96009.25;4955278;28;20039;-74
2023/01/01 04:14:52;;;;;;;26.65;9.18;;;;;;;4.05;100.00;96013.16;4937964;28;20413;-74
2023/01/01 04:17:18;;;;;;;25.63;9.52;;;;;;;4.02;100.00;96013.59;4933403;29;20043;-74
2023/01/01 04:19:43;;;;;;;26.88;9.55;;;;;;;3.96;100.00;96003.00;4943248;28;20058;-74
2023/01/01 04:22:09;;;;;;;24.48;9.90;;;;;;;3.88;100.00;96000.69;4960384;28;20075;-74
2023/01/01 04:24:34;;;;;;;26.85;9.77;;;;;;;3.86;100.00;96000.09;4952333;28;20390;-74
2023/01/01 04:27:00;;;;;;;25.55;9.25;;;;;;;3.80;100.00;95995.75;4952115;28;20411;-73
2023/01/01 04:29:25;;;;;;;27.40;10.57;;;;;;;3.79;100.00;95994.16;4957908;28;20043;-74
2023/01/01 04:31:51;;;;;;;24.58;9.45;;;;;;;3.72;100.00;95998.63;4958121;28;20125;-74
2023/01/01 04:34:17;;;;;;;29.08;10.90;;;;;;;3.67;100.00;95995.88;4967180;28;20043;-74
2023/01/01 04:36:42;;;;;;;29.13;12.00;;;;;;;3.62;100.00;96005.13;4971115;28;20038;-74
2023/01/01 04:39:08;;;;;;;34.35;10.75;;;;;;;3.57;100.00;96010.16;4939358;28;20521;-74
2023/01/01 04:41:34;;;;;;;32.20;11.07;;;;;;;3.47;100.00;95999.44;4951112;28;20142;-74
2023/01/01 04:43:59;;;;;;;40.30;12.15;;;;;;;3.51;100.00;96003.22;4966200;28;20042;-74
2023/01/01 04:46:25;;;;;;;31.33;10.70;;;;;;;3.54;100.00;96007.19;4961005;28;20429;-74
2023/01/01 04:48:51;;;;;;;32.40;10.40;;;;;;;3.44;100.00;96012.88;4963998;28;20047;-73
2023/01/01 04:51:21;;;;;;;35.78;11.52;;;;;;;3.37;100.00;96014.72;4964869;28;20506;-73
2023/01/01 04:53:46;;;;;;;31.15;11.05;;;;;;;3.29;100.00;96013.97;4952191;28;20410;-74
2023/01/01 04:56:18;;;;;;;33.33;11.25;;;;;;;3.21;100.00;96009.00;4951690;28;20048;-74
2023/01/01 04:58:43;;;;;;;27.33;10.73;;;;;;;3.23;100.00;96012.22;4944121;28;20047;-73
2023/01/01 05:01:35;;;;;;;26.98;9.90;;;;;;;3.24;100.00;96019.00;4950282;28;20140;-75
2023/01/01 05:04:01;;;;;;;21.27;9.00;;;;;;;3.10;100.00;96017.47;4961289;28;20094;-74
2023/01/01 05:06:27;;;;;;;22.65;8.55;;;;;;;3.08;100.00;96019.50;4973651;28;20047;-73
2023/01/01 05:08:54;;;;;;;19.80;8.98;;;;;;;3.09;100.00;96021.09;4955708;28;20114;-74
2023/01/01 05:11:25;;;;;;;18.08;8.63;;;;;;;3.07;100.00;96010.88;4956395;28;20893;-74
2023/01/01 05:13:52;;;;;;;17.73;8.50;;;;;;;2.94;100.00;96019.59;4955579;28;20039;-73
2023/01/01 05:16:22;;;;;;;20.42;8.93;;;;;;;3.00;100.00;96022.34;4955403;28;20039;-73
2023/01/01 05:18:48;;;;;;;20.85;7.75;;;;;;;2.97;100.00;96030.56;4936178;28;20044;-74
2023/01/01 05:21:20;;;;;;;20.75;9.05;;;;;;;2.97;100.00;96033.16;4954634;28;20047;-74
2023/01/01 05:23:46;;;;;;;19.15;8.10;;;;;;;2.93;100.00;96043.16;4961936;28;20050;-73
2023/01/01 05:26:16;;;;;;;19.63;8.55;;;;;;;2.84;100.00;96032.22;4973278;28;20047;-74
2023/01/01 05:28:42;;;;;;;20.08;9.00;;;;;;;2.87;100.00;96034.38;4936394;29;20118;-73
2023/01/01 05:31:11;;;;;;;22.10;9.23;;;;;;;2.91;100.00;96030.38;4946091;28;20497;-74
2023/01/01 05:33:37;;;;;;;17.98;8.68;;;;;;;2.91;100.00;96025.19;4962953;28;20072;-73
2023/01/01 05:36:04;;;;;;;16.52;7.85;;;;;;;2.97;100.00;96022.75;4962590;28;20046;-73
2023/01/01 05:38:29;;;;;;;15.25;7.90;;;;;;;2.97;100.00;96017.56;4973676;28;20385;-73
2023/01/01 05:40:56;;;;;;;8.90;4.80;;;;;;;3.87;100.00;96017.31;4971227;28;20049;-73
2023/01/01 05:43:21;;;;;;;11.30;5.45;;;;;;;4.53;100.00;96022.88;4951700;28;20122;-73
2023/01/01 05:45:47;;;;;;;18.13;8.10;;;;;;;4.41;100.00;96022.00;4935658;29;20131;-73
2023/01/01 05:48:12;;;;;;;26.70;8.73;;;;;;;4.02;100.00;96024.00;4935859;28;20492;-73
2023/01/01 05:50:38;;;;;;;24.80;9.40;;;;;;;3.60;100.00;96020.13;4940858;28;20035;-74
2023/01/01 05:53:04;;;;;;;24.75;10.75;;;;;;;3.51;100.00;96029.22;4960534;28;20497;-73
2023/01/01 05:55:30;;;;;;;21.02;8.35;;;;;;;3.51;100.00;96034.44;4971647;28;20050;-73
2023/01/01 05:57:55;;;;;;;14.68;6.65;;;;;;;4.40;100.00;96033.47;4965330;28;20051;-73
2023/01/01 06:00:21;;;;;;;22.65;8.43;;;;;;;4.03;100.00;96036.03;4962716;28;20043;-73
2023/01/01 06:02:48;;;;;;;9.32;3.90;;;;;;;5.01;100.00;96042.97;4969885;28;20472;-73
2023/01/01 06:05:14;;;;;;;5.80;3.05;;;;;;;5.17;100.00;96045.97;4962028;28;20039;-73
2023/01/01 06:07:40;;;;;;;6.50;2.90;;;;;;;6.53;100.00;96047.06;4954859;28;20400;-76
2023/01/01 06:10:06;;;;;;;5.13;2.03;;;;;;;7.08;100.00;96049.19;4937609;28;20476;-73
2023/01/01 06:12:31;;;;;;;4.43;2.10;;;;;;;7.85;100.00;96051.53;4956605;28;20110;-73
2023/01/01 06:14:57;;;;;;;4.10;2.20;;;;;;;7.81;100.00;96056.44;4963756;28;20231;-74
2023/01/01 06:17:22;;;;;;;4.28;2.50;;;;;;;8.18;100.00;96055.19;4957859;28;20050;-73
2023/01/01 06:19:48;;;;;;;3.53;2.15;;;;;;;8.59;100.00;96061.00;4940523;28;20062;-73
2023/01/01 06:22:13;;;;;;;4.45;2.40;;;;;;;8.71;100.00;96053.81;4953809;28;20049;-73
2023/01/01 06:24:39;;;;;;;4.43;2.53;;;;;;;8.82;100.00;96060.78;4959717;28;20118;-73
2023/01/01 06:27:05;;;;;;;4.45;2.47;;;;;;;9.05;98.88;96061.56;4953062;28;20062;-73
2023/01/01 06:29:31;;;;;;;5.93;2.72;;;;;;;9.00;99.39;96056.25;4962014;28;20038;-73
2023/01/01 06:31:57;;;;;;;5.22;2.35;;;;;;;9.08;97.01;96055.81;4953198;28;20086;-73
2023/01/01 06:34:23;;;;;;;5.60;2.92;;;;;;;9.19;95.82;96064.59;4957851;28;20122;-73
2023/01/01 06:36:48;;;;;;;4.60;2.35;;;;;;;9.10;96.47;96061.63;4967652;28;20070;-73
2023/01/01 06:39:14;;;;;;;5.97;2.65;;;;;;;9.41;91.18;96061.94;4935296;29;20134;-73
2023/01/01 06:41:39;;;;;;;5.43;2.40;;;;;;;9.49;90.72;96069.38;4953849;28;20043;-73
2023/01/01 06:44:05;;;;;;;4.70;2.15;;;;;;;9.31;93.18;96072.31;4964939;28;20473;-73
2023/01/01 06:46:32;;;;;;;4.40;2.20;;;;;;;9.26;92.82;96080.16;4948539;28;20454;-73
2023/01/01 06:49:04;;;;;;;5.10;2.50;;;;;;;9.19;92.59;96075.91;4934740;28;20039;-73
2023/01/01 06:51:37;;;;;;;5.30;2.60;;;;;;;9.17;92.14;96067.47;4969287;28;20047;-73
2023/01/01 06:54:04;;;;;;;3.93;2.23;;;;;;;9.10;94.97;96061.63;4956708;28;20658;-73
2023/01/01 06:56:30;;;;;;;3.83;2.28;;;;;;;9.09;93.49;96060.03;4960251;28;20051;-73
2023/01/01 06:58:56;;;;;;;3.50;2.20;;;;;;;9.08;93.80;96068.97;4959271;28;20101;-76
2023/01/01 07:01:24;;;;;;;6.18;2.47;;;;;;;9.24;90.89;96079.59;4958640;28;20501;-73
2023/01/01 07:03:52;;;;;;;4.53;2.33;;;;;;;9.13;92.17;96086.59;4958870;28;20038;-74
2023/01/01 07:06:18;;;;;;;4.15;2.40;;;;;;;8.92;98.27;96089.00;4958565;28;20158;-73
2023/01/01 07:08:44;;;;;;;3.50;2.25;;;;;;;8.53;100.00;96088.22;4935137;29;20093;-73
2023/01/01 07:11:09;;;;;;;4.95;2.72;;;;;;;8.06;100.00;96089.31;4952248;28;20119;-73
2023/01/01 07:13:35;;;;;;;3.90;2.40;;;;;;;7.74;100.00;96098.53;4956335;28;20126;-73
2023/01/01 07:16:01;;;;;;;3.50;2.00;;;;;;;7.76;100.00;96099.09;4961567;28;20039;-73
2023/01/01 07:18:27;;;;;;;5.22;2.17;;;;;;;7.51;100.00;96093.41;4949231;28;20043;-70
2023/01/01 07:20:59;;;;;;;5.75;2.22;;;;;;;7.22;100.00;96093.41;4955357;28;20516;-71
2023/01/01 07:23:25;;;;;;;5.50;2.10;;;;;;;7.10;100.00;96109.94;4966449;28;20049;-71
2023/01/01 07:25:52;;;;;;;3.70;2.10;;;;;;;6.98;100.00;96111.78;4963974;28;20051;-73
2023/01/01 07:28:19;;;;;;;3.78;2.10;;;;;;;7.05;100.00;96122.13;4953950;28;20044;-73
2023/01/01 07:30:44;;;;;;;4.53;2.15;;;;;;;6.87;100.00;96120.47;4966315;28;20122;-73
2023/01/01 07:33:12;;;;;;;3.72;2.15;;;;;;;6.59;100.00;96116.75;4966613;28;20053;-74
2023/01/01 07:35:38;;;;;;;5.85;2.30;;;;;;;6.31;100.00;96113.00;4956328;28;20043;-72
2023/01/01 07:38:04;;;;;;;5.85;2.63;;;;;;;6.22;100.00;96119.56;4955655;28;20050;-73
2023/01/01 07:40:29;;;;;;;4.00;2.15;;;;;;;6.11;100.00;96120.38;4964316;28;20043;-73
2023/01/01 07:42:55;;;;;;;3.22;1.90;;;;;;;6.17;100.00;96132.53;4972155;28;20074;-73
2023/01/01 07:45:20;;;;;;;5.10;2.40;;;;;;;6.10;100.00;96137.06;4945281;28;20039;-73
2023/01/01 07:47:55;;;;;;;5.53;2.28;;;;;;;5.96;100.00;96147.72;4933756;29;20043;-74
2023/01/01 07:50:22;;;;;;;4.30;2.22;;;;;;;5.67;100.00;96144.09;4960547;28;20039;-75
2023/01/01 07:52:48;;;;;;;4.97;2.70;;;;;;;5.41;100.00;96150.47;4970726;28;20437;-76
2023/01/01 07:55:15;;;;;;;4.93;2.30;;;;;;;5.34;100.00;96146.13;4955413;28;20042;-72
2023/01/01 07:57:42;;;;;;;4.93;2.30;;;;;;;5.39;100.00;96155.91;4951389;29;20047;-72
2023/01/01 08:00:10;;;;;;;4.00;2.22;;;;;;;5.45;100.00;96157.63;4962296;28;20066;-72
2023/01/01 08:02:36;;;;;;;5.47;2.40;;;;;;;5.31;100.00;96157.00;4971769;28;20039;-73
2023/01/01 08:05:02;;;;;;;7.90;2.60;;;;;;;5.26;100.00;96162.09;4961792;28;20105;-72
2023/01/01 08:07:27;;;;;;;5.95;2.15;;;;;;;5.29;100.00;96164.25;4948257;28;20044;-72
2023/01/01 08:09:53;;;;;;;8.43;2.45;;;;;;;5.30;100.00;96163.25;4948437;28;20045;-73
2023/01/01 08:12:19;;;;;;;6.30;2.50;;;;;;;5.27;100.00;96161.06;4963864;28;20102;-74
2023/01/01 08:14:45;;;;;;;8.80;2.85;;;;;;;5.18;100.00;96157.16;4965694;28;20116;-74
2023/01/01 08:17:11;;;;;;;5.28;2.53;;;;;;;5.27;100.00;96165.47;4950414;28;20098;-75
2023/01/01 08:19:36;;;;;;;5.03;2.75;;;;;;;5.26;100.00;96156.88;4948602;28;20043;-74
2023/01/01 08:22:02;;;;;;;4.43;2.40;;;;;;;5.41;100.00;96160.91;4953006;28;20046;-74
2023/01/01 08:24:27;;;;;;;4.47;2.40;;;;;;;5.51;100.00;96161.16;4960253;28;20047;-74
2023/01/01 08:26:53;;;;;;;7.70;2.70;;;;;;;5.53;100.00;96159.13;4955013;28;20051;-74
2023/01/01 08:29:19;;;;;;;4.82;2.70;;;;;;;5.75;100.00;96161.25;4957271;28;20058;-74
2023/01/01 08:31:45;;;;;;;5.72;2.30;;;;;;;5.75;100.00;96161.25;4956642;28;20143;-74
2023/01/01 08:34:10;;;;;;;4.55;2.63;;;;;;;5.80;100.00;96158.78;4968515;28;20069;-76
2023/01/01 08:36:39;;;;;;;5.32;2.47;;;;;;;5.91;100.00;96155.41;4965290;28;20424;-76
2023/01/01 08:39:05;;;;;;;4.78;2.53;;;;;;;5.97;100.00;96164.97;4971401;28;20098;-74
2023/01/01 08:41:31;;;;;;;3.40;2.17;;;;;;;6.37;100.00;96150.50;4953641;28;20061;-73
2023/01/01 08:43:57;;;;;;;7.15;2.60;;;;;;;6.47;100.00;96153.34;4953563;28;20486;-74
2023/01/01 08:46:23;;;;;;;3.08;1.90;;;;;;;8.27;100.00;96153.38;4965859;28;20039;-74
2023/01/01 08:48:48;;;;;;;3.58;2.08;;;;;;;8.89;100.00;96154.28;4950729;28;20051;-75
2023/01/01 08:51:14;;;;;;;2.80;1.80;;;;;;;9.71;100.00;96155.25;4940630;29;20043;-75
2023/01/01 08:53:40;;;;;;;3.13;1.70;;;;;;;10.08;96.25;96149.28;4942583;29;20044;-75
2023/01/01 08:56:08;;;;;;;3.00;1.63;;;;;;;10.31;93.72;96158.66;4960819;28;20421;-74
2023/01/01 08:58:39;;;;;;;3.00;1.90;;;;;;;10.42;93.49;96161.44;4960642;28;20048;-74
2023/01/01 09:01:06;;;;;;;4.07;1.60;;;;;;;10.38;95.96;96154.03;4933083;29;20047;-77
2023/01/01 09:03:32;;;;;;;2.60;1.60;;;;;;;10.04;100.00;96158.72;4931984;29;20047;-75
2023/01/01 09:05:58;;;;;;;2.88;1.63;;;;;;;10.05;100.00;96160.31;4947705;28;20039;-75
2023/01/01 09:08:24;;;;;;;3.67;1.63;;;;;;;10.31;100.00;96157.88;4947559;28;20114;-75
2023/01/01 09:10:50;;;;;;;3.13;1.50;;;;;;;10.20;100.00;96162.25;4963194;28;20046;-77
2023/01/01 09:13:20;;;;;;;2.58;1.80;;;;;;;10.04;100.00;96174.47;4971020;28;20043;-75
2023/01/01 09:15:46;;;;;;;2.58;1.65;;;;;;;9.95;100.00;96176.00;4965900;28;20057;-73
2023/01/01 09:18:12;;;;;;;4.68;1.70;;;;;;;9.81;100.00;96176.41;4962202;28;20517;-74
2023/01/01 09:20:38;;;;;;;6.72;1.98;;;;;;;9.75;100.00;96171.31;4958269;28;20044;-74
2023/01/01 09:23:04;;;;;;;4.53;1.90;;;;;;;9.77;100.00;96180.56;4951821;29;20118;-74
2023/01/01 09:25:31;;;;;;;3.00;2.00;;;;;;;9.79;100.00;96188.19;4951540;28;20044;-74
2023/01/01 09:28:02;;;;;;;4.47;2.22;;;;;;;9.91;100.00;96180.94;4962958;28;20054;-74
2023/01/01 09:30:27;;;;;;;4.20;2.20;;;;;;;9.92;100.00;96194.91;4932579;29;20039;-75
2023/01/01 09:32:53;;;;;;;6.28;2.70;;;;;;;9.96;100.00;96182.84;4932531;29;20134;-74
2023/01/01 09:35:19;;;;;;;3.75;2.35;;;;;;;10.43;100.00;96191.94;4942853;28;20049;-75
2023/01/01 09:37:44;;;;;;;3.05;1.80;;;;;;;11.03;95.43;96184.72;4955838;28;20035;-74
2023/01/01 09:40:26;;;;;;;3.25;1.90;;;;;;;11.85;88.41;96185.03;4970934;28;20050;-75
2023/01/01 09:43:19;;;;;;;3.78;2.05;;;;;;;12.48;78.90;96186.72;4970735;28;20053;-75
2023/01/01 09:46:05;;;;;;;5.78;1.85;;;;;;;12.59;84.79;96188.28;4955589;28;20047;-74
2023/01/01 09:48:32;;;;;;;2.58;1.70;;;;;;;13.42;81.99;96188.13;4948949;28;20122;-74
2023/01/01 09:51:04;;;;;;;4.95;1.85;;;;;;;14.45;72.14;96188.34;4943654;28;20038;-74
2023/01/01 09:53:51;;;;;;;3.10;2.05;;;;;;;15.49;66.58;96177.53;4957658;28;20047;-72
2023/01/01 09:56:25;;;;;;;8.90;2.40;;;;;;;15.84;66.77;96173.66;4961299;28;20050;-71
2023/01/01 09:58:51;;;;;;;3.75;2.50;;;;;;;16.11;63.74;96167.69;4957935;28;20118;-74
2023/01/01 10:01:44;;;;;;;9.70;3.63;;;;;;;16.58;60.06;96169.66;4955120;28;20062;-74
2023/01/01 10:04:45;;;;;;;7.78;3.33;;;;;;;16.52;54.98;96168.13;4954913;28;20039;-74
2023/01/01 10:07:18;;;;;;;4.53;2.47;;;;;;;16.71;53.49;96174.19;4956761;28;20047;-74
2023/01/01 10:10:01;;;;;;;2.97;1.85;;;;;;;16.64;52.66;96163.16;4954813;29;20803;-75
2023/01/01 10:12:45;;;;;;;4.45;2.20;;;;;;;16.90;52.98;96165.41;4954930;28;20081;-75
2023/01/01 10:15:28;;;;;;;3.05;1.90;;;;;;;17.65;50.58;96152.75;4958435;28;20125;-73
2023/01/01 10:17:58;;;;;;;4.10;2.00;;;;;;;17.48;49.00;96143.53;4936660;28;20051;-73
2023/01/01 10:20:31;;;;;;;3.40;1.88;;;;;;;17.63;48.45;96145.06;4936408;28;20039;-73
2023/01/01 10:23:03;;;;;;;3.30;1.98;;;;;;;18.04;48.48;96151.41;4949626;29;20043;-74
2023/01/01 10:25:32;;;;;;;4.63;1.98;;;;;;;19.01;47.69;96142.13;4936046;29;20047;-74
2023/01/01 10:28:00;;;;;;;2.75;1.80;;;;;;;18.69;44.42;96142.13;4949016;28;20039;-73
2023/01/01 10:30:27;;;;;;;3.08;1.80;;;;;;;18.47;46.00;96139.47;4952398;29;20043;-73
2023/01/01 10:32:54;;;;;;;3.65;2.08;;;;;;;18.31;45.32;96141.72;4955295;28;20043;-72
2023/01/01 10:35:29;;;;;;;2.85;1.95;;;;;;;19.65;44.61;96132.88;4961105;28;20038;-72
2023/01/01 10:37:58;;;;;;;3.58;1.75;;;;;;;19.51;43.00;96139.16;4954332;28;20040;-72
2023/01/01 10:40:25;;;;;;;3.03;2.00;;;;;;;19.02;44.26;96138.34;4940618;29;20050;-73
2023/01/01 10:42:53;;;;;;;4.88;2.38;;;;;;;19.05;45.46;96127.09;4954650;29;20050;-75
2023/01/01 10:45:34;;;;;;;3.90;2.10;;;;;;;18.70;43.66;96127.72;4954497;28;20042;-75
2023/01/01 10:48:10;;;;;;;5.07;2.63;;;;;;;18.91;43.78;96124.53;4939856;28;20055;-74
2023/01/01 10:50:51;;;;;;;3.90;2.00;;;;;;;20.10;44.32;96116.59;4940928;28;20070;-72
2023/01/01 10:53:35;;;;;;;2.78;1.80;;;;;;;19.89;41.00;96117.22;4950315;28;20043;-72
2023/01/01 10:56:09;;;;;;;3.00;1.75;;;;;;;20.73;40.32;96121.50;4953905;28;20149;-72
2023/01/01 10:58:40;;;;;;;3.30;1.90;;;;;;;21.88;39.51;96109.09;4945387;28;20039;-72
2023/01/01 11:01:08;;;;;;;3.17;1.98;;;;;;;21.45;37.98;96113.66;4934921;29;20048;-72
2023/01/01 11:03:35;;;;;;;3.95;1.90;;;;;;;20.50;39.41;96108.34;4935057;29;20425;-72
2023/01/01 11:06:09;;;;;;;3.60;1.90;;;;;;;20.35;39.98;96111.53;4939151;28;20111;-71
2023/01/01 11:08:38;;;;;;;2.42;1.75;;;;;;;21.01;40.17;96115.75;4962766;28;20066;-70
2023/01/01 11:11:04;;;;;;;3.47;2.10;;;;;;;21.23;39.07;96107.47;4964847;28;20145;-71
2023/01/01 11:13:31;;;;;;;3.15;1.85;;;;;;;20.46;40.55;96107.41;4954274;28;20043;-71
2023/01/01 11:15:58;;;;;;;2.58;1.90;;;;;;;21.97;38.05;96104.47;4947575;28;20036;-74
2023/01/01 11:18:34;;;;;;;4.63;2.00;;;;;;;21.13;37.92;96094.44;4951024;28;20506;-72
2023/01/01 11:21:01;;;;;;;2.75;2.00;;;;;;;20.39;39.28;96091.09;4954461;28;20051;-73
2023/01/01 11:23:28;;;;;;;2.95;1.90;;;;;;;21.12;39.14;96087.53;4954448;28;20043;-72
2023/01/01 11:26:17;;;;;;;3.22;1.98;;;;;;;21.31;37.59;96086.34;4956479;28;20053;-75
2023/01/01 11:29:18;;;;;;;2.97;1.90;;;;;;;22.31;37.09;96084.59;4936842;28;20064;-73
2023/01/01 11:31:46;;;;;;;2.67;1.90;;;;;;;21.76;35.66;96080.38;4941587;29;20047;-74
2023/01/01 11:34:39;;;;;;;2.67;1.90;;;;;;;21.60;38.06;96077.50;4956256;28;20267;-75
2023/01/01 11:37:32;;;;;;;3.40;2.10;;;;;;;21.06;37.57;96073.56;4958492;28;20078;-73
2023/01/01 11:40:00;;;;;;;3.47;2.35;;;;;;;20.37;40.87;96077.22;4959289;28;20054;-75
2023/01/01 11:42:29;;;;;;;19.33;2.40;;;;;;;21.21;39.24;96069.53;4968293;28;20039;-73